createdAt,value
2022-10-29T00:00:15.846Z,11.98
2022-10-29T00:01:17.618Z,11.99
2022-10-29T00:02:19.212Z,12.00
2022-10-29T00:03:21.550Z,12.02
2022-10-29T00:04:23.134Z,11.99
2022-10-29T00:05:24.742Z,11.83
2022-10-29T00:06:26.328Z,11.85
2022-10-29T00:07:28.093Z,11.90
2022-10-29T00:08:31.877Z,11.96
2022-10-29T00:09:33.434Z,12.02
2022-10-29T00:10:34.947Z,12.09
2022-10-29T00:11:36.771Z,12.15
2022-10-29T00:12:38.355Z,12.20
2022-10-29T00:13:40.960Z,12.21
2022-10-29T00:14:42.481Z,12.22
2022-10-29T00:15:44.031Z,12.23
2022-10-29T00:16:45.548Z,12.22
2022-10-29T00:17:47.098Z,12.20
2022-10-29T00:18:48.815Z,12.21
2022-10-29T00:19:50.334Z,12.23
2022-10-29T00:21:00.381Z,12.25
2022-10-29T00:22:01.880Z,12.26
2022-10-29T00:23:03.520Z,12.26
2022-10-29T00:24:05.566Z,12.26
2022-10-29T00:25:07.399Z,12.21
2022-10-29T00:26:09.036Z,12.23
2022-10-29T00:27:10.709Z,12.29
2022-10-29T00:28:12.292Z,12.28
2022-10-29T00:29:13.931Z,12.28
2022-10-29T00:30:15.743Z,12.29
2022-10-29T00:31:19.178Z,12.30
2022-10-29T00:32:20.806Z,12.29
2022-10-29T00:33:22.591Z,12.28
2022-10-29T00:34:24.243Z,12.27
2022-10-29T00:35:26.239Z,12.11
2022-10-29T00:36:30.089Z,12.01
2022-10-29T00:37:31.649Z,11.94
2022-10-29T00:38:34.816Z,11.77
2022-10-29T00:39:36.352Z,11.71
2022-10-29T00:40:38.593Z,11.67
2022-10-29T00:41:40.225Z,11.72
2022-10-29T00:42:41.731Z,11.77
2022-10-29T00:44:14.357Z,11.78
2022-10-29T00:45:20.321Z,11.54
2022-10-29T00:46:31.541Z,11.45
2022-10-29T00:47:36.865Z,11.42
2022-10-29T00:48:45.687Z,11.29
2022-10-29T00:49:51.146Z,11.17
2022-10-29T00:50:54.085Z,11.06
2022-10-29T00:51:57.155Z,11.06
2022-10-29T00:52:59.140Z,11.15
2022-10-29T00:54:05.026Z,11.26
2022-10-29T00:55:08.994Z,11.37
2022-10-29T00:56:12.058Z,11.44
2022-10-29T00:57:28.175Z,11.49
2022-10-29T00:58:30.944Z,11.53
2022-10-29T00:59:32.544Z,11.59
2022-10-29T01:00:34.056Z,11.54
2022-10-29T01:01:36.820Z,11.44
2022-10-29T01:02:38.843Z,11.40
2022-10-29T01:03:40.648Z,11.36
2022-10-29T01:04:43.228Z,11.28
2022-10-29T01:05:45.790Z,11.23
2022-10-29T01:06:48.177Z,11.23
2022-10-29T01:07:49.738Z,11.19
2022-10-29T01:08:51.235Z,11.21
2022-10-29T01:09:52.777Z,11.28
2022-10-29T01:11:00.207Z,11.37
2022-10-29T01:12:32.261Z,11.40
2022-10-29T01:13:45.739Z,11.48
2022-10-29T01:15:18.839Z,11.57
2022-10-29T01:16:40.992Z,11.65
2022-10-29T01:17:54.982Z,11.68
2022-10-29T01:19:21.630Z,11.57
2022-10-29T01:20:34.979Z,11.47
2022-10-29T01:21:47.115Z,11.30
2022-10-29T01:23:19.239Z,11.15
2022-10-29T01:24:54.106Z,10.92
2022-10-29T01:25:58.681Z,10.52
2022-10-29T01:27:16.560Z,10.34
2022-10-29T01:28:46.091Z,10.07
2022-10-29T01:30:09.602Z,9.83
2022-10-29T01:31:33.759Z,9.81
2022-10-29T01:33:00.774Z,9.83
2022-10-29T01:34:22.813Z,9.84
2022-10-29T01:35:57.426Z,9.89
2022-10-29T01:37:20.246Z,9.84
2022-10-29T01:38:36.047Z,9.82
2022-10-29T01:39:44.572Z,9.81
2022-10-29T01:41:05.625Z,9.84
2022-10-29T01:42:13.459Z,9.88
2022-10-29T01:43:25.960Z,9.93
2022-10-29T01:44:56.554Z,9.94
2022-10-29T01:46:04.696Z,9.96
2022-10-29T01:47:14.205Z,9.99
2022-10-29T01:48:19.515Z,10.08
2022-10-29T01:49:36.799Z,10.16
2022-10-29T01:50:42.295Z,10.25
2022-10-29T01:51:45.739Z,10.33
2022-10-29T01:52:49.425Z,10.41
2022-10-29T01:53:52.007Z,10.48
2022-10-29T01:54:53.505Z,10.55
2022-10-29T01:55:55.006Z,10.59
2022-10-29T01:56:58.190Z,10.64
2022-10-29T01:57:59.861Z,10.69
2022-10-29T01:59:04.602Z,10.75
2022-10-29T02:00:12.802Z,10.75
2022-10-29T02:01:34.864Z,10.79
2022-10-29T02:02:54.043Z,10.73
2022-10-29T02:04:13.578Z,10.58
2022-10-29T02:05:29.008Z,10.49
2022-10-29T02:06:58.738Z,10.40
2022-10-29T02:08:32.981Z,10.45
2022-10-29T02:09:55.026Z,10.50
2022-10-29T02:11:07.459Z,10.38
2022-10-29T02:12:29.728Z,10.22
2022-10-29T02:13:37.116Z,10.04
2022-10-29T02:14:46.261Z,10.06
2022-10-29T02:15:55.782Z,10.04
2022-10-29T02:16:59.050Z,10.05
2022-10-29T02:18:02.649Z,10.06
2022-10-29T02:19:05.695Z,10.03
2022-10-29T02:20:10.402Z,10.02
2022-10-29T02:21:16.624Z,10.07
2022-10-29T02:22:18.194Z,10.11
2022-10-29T02:23:19.849Z,10.12
2022-10-29T02:24:21.338Z,10.11
2022-10-29T02:25:23.532Z,10.11
2022-10-29T02:26:25.197Z,10.19
2022-10-29T02:27:26.766Z,10.25
2022-10-29T02:28:28.276Z,10.27
2022-10-29T02:29:29.782Z,10.29
2022-10-29T02:30:31.322Z,10.21
2022-10-29T02:31:32.930Z,10.15
2022-10-29T02:32:34.447Z,10.17
2022-10-29T02:33:36.167Z,10.11
2022-10-29T02:34:37.660Z,10.13
2022-10-29T02:35:39.150Z,10.07
2022-10-29T02:36:40.889Z,10.09
2022-10-29T02:37:42.470Z,10.18
2022-10-29T02:38:43.963Z,10.25
2022-10-29T02:39:45.479Z,10.34
2022-10-29T02:40:47.000Z,10.41
2022-10-29T02:41:48.561Z,10.45
2022-10-29T02:42:50.071Z,10.48
2022-10-29T02:43:51.640Z,10.51
2022-10-29T02:44:53.202Z,10.54
2022-10-29T02:46:14.390Z,10.60
2022-10-29T02:47:16.009Z,10.65
2022-10-29T02:48:17.513Z,10.68
2022-10-29T02:49:19.024Z,10.71
2022-10-29T02:50:20.535Z,10.72
2022-10-29T02:51:22.113Z,10.75
2022-10-29T02:52:23.897Z,10.78
2022-10-29T02:53:25.406Z,10.81
2022-10-29T02:54:26.942Z,10.80
2022-10-29T02:55:28.453Z,10.79
2022-10-29T02:56:29.958Z,10.78
2022-10-29T02:57:31.554Z,10.77
2022-10-29T02:58:33.583Z,10.78
2022-10-29T02:59:35.107Z,10.78
2022-10-29T03:00:36.610Z,10.77
2022-10-29T03:01:38.227Z,10.72
2022-10-29T03:02:40.117Z,10.71
2022-10-29T03:03:41.865Z,10.61
2022-10-29T03:04:44.774Z,10.55
2022-10-29T03:05:49.016Z,10.50
2022-10-29T03:06:50.851Z,10.52
2022-10-29T03:07:52.481Z,10.55
2022-10-29T03:08:53.979Z,10.59
2022-10-29T03:09:55.506Z,10.61
2022-10-29T03:10:57.070Z,10.63
2022-10-29T03:11:58.622Z,10.65
2022-10-29T03:13:00.301Z,10.69
2022-10-29T03:14:01.844Z,10.73
2022-10-29T03:15:03.580Z,10.76
2022-10-29T03:16:05.559Z,10.81
2022-10-29T03:17:07.090Z,10.80
2022-10-29T03:18:08.624Z,10.81
2022-10-29T03:19:10.158Z,10.84
2022-10-29T03:20:11.830Z,10.85
2022-10-29T03:21:13.449Z,10.86
2022-10-29T03:22:15.091Z,10.78
2022-10-29T03:23:16.702Z,10.66
2022-10-29T03:24:18.250Z,10.47
2022-10-29T03:25:19.758Z,10.32
2022-10-29T03:26:21.312Z,10.08
2022-10-29T03:27:22.852Z,9.93
2022-10-29T03:28:27.895Z,9.76
2022-10-29T03:29:29.480Z,9.53
2022-10-29T03:30:31.047Z,9.21
2022-10-29T03:31:32.673Z,8.92
2022-10-29T03:32:34.185Z,8.79
2022-10-29T03:33:36.185Z,8.71
2022-10-29T03:34:37.700Z,8.82
2022-10-29T03:35:39.480Z,8.83
2022-10-29T03:36:41.056Z,8.86
2022-10-29T03:37:42.850Z,8.87
2022-10-29T03:38:44.359Z,8.83
2022-10-29T03:39:45.841Z,8.70
2022-10-29T03:40:47.344Z,8.66
2022-10-29T03:41:48.820Z,8.64
2022-10-29T03:42:50.327Z,8.67
2022-10-29T03:43:51.937Z,8.76
2022-10-29T03:44:53.505Z,8.83
2022-10-29T03:45:57.074Z,8.89
2022-10-29T03:46:58.588Z,8.94
2022-10-29T03:48:00.137Z,8.98
2022-10-29T03:49:01.704Z,9.03
2022-10-29T03:50:04.036Z,9.07
2022-10-29T03:51:06.966Z,9.15
2022-10-29T03:52:08.739Z,9.17
2022-10-29T03:53:11.293Z,9.20
2022-10-29T03:54:12.824Z,9.19
2022-10-29T03:55:14.343Z,9.21
2022-10-29T03:56:16.023Z,9.17
2022-10-29T03:57:17.539Z,8.98
2022-10-29T03:58:19.452Z,8.92
2022-10-29T03:59:20.994Z,8.93
2022-10-29T04:00:22.514Z,9.01
2022-10-29T04:01:24.155Z,8.99
2022-10-29T04:02:26.008Z,8.95
2022-10-29T04:03:29.633Z,9.00
2022-10-29T04:04:31.178Z,9.06
2022-10-29T04:05:32.666Z,9.06
2022-10-29T04:06:34.167Z,9.10
2022-10-29T04:07:35.685Z,9.12
2022-10-29T04:08:37.723Z,9.16
2022-10-29T04:09:39.321Z,9.21
2022-10-29T04:10:45.643Z,9.26
2022-10-29T04:11:47.327Z,9.29
2022-10-29T04:12:48.881Z,9.32
2022-10-29T04:13:53.579Z,9.31
2022-10-29T04:14:55.185Z,9.30
2022-10-29T04:15:56.714Z,9.33
2022-10-29T04:16:58.993Z,9.35
2022-10-29T04:18:00.493Z,9.40
2022-10-29T04:19:02.383Z,9.40
2022-10-29T04:20:10.006Z,9.41
2022-10-29T04:29:32.197Z,9.11
2022-10-29T04:30:33.736Z,8.94
2022-10-29T04:31:35.435Z,8.75
2022-10-29T04:32:39.867Z,8.75
2022-10-29T04:33:41.406Z,8.76
2022-10-29T04:34:42.936Z,8.83
2022-10-29T04:35:44.505Z,8.88
2022-10-29T04:36:46.051Z,8.87
2022-10-29T04:37:47.574Z,8.86
2022-10-29T04:38:50.334Z,8.78
2022-10-29T04:39:51.839Z,8.65
2022-10-29T04:40:53.382Z,8.63
2022-10-29T04:41:54.863Z,8.56
2022-10-29T04:42:56.677Z,8.59
2022-10-29T04:43:58.385Z,8.61
2022-10-29T04:44:59.903Z,8.65
2022-10-29T04:46:01.518Z,8.54
2022-10-29T04:47:03.085Z,8.53
2022-10-29T04:48:06.101Z,8.51
2022-10-29T04:49:07.633Z,8.56
2022-10-29T04:50:09.771Z,8.61
2022-10-29T04:51:25.383Z,8.70
2022-10-29T04:52:26.948Z,8.75
2022-10-29T04:53:28.451Z,8.77
2022-10-29T04:54:29.971Z,8.75
2022-10-29T04:55:31.865Z,8.68
2022-10-29T04:56:33.387Z,8.56
2022-10-29T04:57:34.941Z,8.41
2022-10-29T04:58:36.459Z,8.37
2022-10-29T04:59:37.976Z,8.37
2022-10-29T05:00:39.663Z,8.42
2022-10-29T05:01:41.217Z,8.48
2022-10-29T05:02:42.739Z,8.50
2022-10-29T05:03:44.312Z,8.46
2022-10-29T05:04:45.806Z,8.41
2022-10-29T05:05:47.344Z,8.29
2022-10-29T05:06:48.887Z,8.19
2022-10-29T05:07:57.738Z,8.07
2022-10-29T05:08:59.480Z,8.10
2022-10-29T05:10:00.995Z,8.16
2022-10-29T05:11:04.660Z,8.28
2022-10-29T05:12:07.478Z,8.28
2022-10-29T05:13:11.653Z,8.30
2022-10-29T05:14:13.206Z,8.20
2022-10-29T05:15:14.840Z,8.18
2022-10-29T05:16:16.396Z,8.19
2022-10-29T05:17:17.935Z,8.24
2022-10-29T05:18:19.446Z,8.33
2022-10-29T05:19:20.959Z,8.40
2022-10-29T05:20:23.396Z,8.46
2022-10-29T05:21:24.882Z,8.47
2022-10-29T05:22:26.439Z,8.57
2022-10-29T05:23:27.955Z,8.66
2022-10-29T05:24:29.482Z,8.74
2022-10-29T05:25:32.793Z,8.82
2022-10-29T05:26:34.334Z,8.88
2022-10-29T05:27:35.929Z,8.93
2022-10-29T05:28:37.449Z,8.99
2022-10-29T05:29:38.989Z,9.03
2022-10-29T05:30:41.724Z,9.08
2022-10-29T05:31:43.401Z,9.11
2022-10-29T05:32:45.017Z,9.12
2022-10-29T05:33:47.024Z,9.09
2022-10-29T05:34:49.619Z,9.11
2022-10-29T05:35:51.660Z,9.10
2022-10-29T05:36:53.635Z,9.12
2022-10-29T05:37:56.192Z,9.14
2022-10-29T05:38:57.824Z,9.19
2022-10-29T05:39:59.343Z,9.25
2022-10-29T05:41:01.189Z,9.22
2022-10-29T05:42:02.751Z,9.16
2022-10-29T05:43:04.591Z,9.16
2022-10-29T05:44:06.171Z,9.13
2022-10-29T05:45:08.373Z,9.15
2022-10-29T05:46:09.930Z,9.21
2022-10-29T05:47:11.448Z,9.25
2022-10-29T05:48:13.517Z,9.30
2022-10-29T05:49:15.135Z,9.36
2022-10-29T05:50:16.740Z,9.44
2022-10-29T05:51:19.335Z,9.54
2022-10-29T05:52:20.847Z,9.57
2022-10-29T05:53:22.395Z,9.55
2022-10-29T05:54:24.101Z,9.60
2022-10-29T05:55:26.439Z,9.69
2022-10-29T05:56:27.983Z,9.71
2022-10-29T05:57:29.655Z,9.74
2022-10-29T05:58:31.179Z,9.79
2022-10-29T05:59:33.836Z,9.82
2022-10-29T06:00:37.912Z,9.88
2022-10-29T06:01:39.556Z,9.90
2022-10-29T06:02:44.550Z,9.91
2022-10-29T06:03:46.694Z,9.91
2022-10-29T06:04:48.270Z,9.94
2022-10-29T06:05:50.744Z,9.92
2022-10-29T06:06:52.327Z,9.96
2022-10-29T06:07:58.492Z,10.01
2022-10-29T06:09:03.569Z,10.01
2022-10-29T06:10:05.670Z,10.08
2022-10-29T06:11:07.238Z,10.13
2022-10-29T06:12:08.814Z,10.12
2022-10-29T06:13:15.065Z,9.97
2022-10-29T06:14:16.600Z,10.12
2022-10-29T06:15:19.115Z,10.20
2022-10-29T06:16:28.343Z,10.20
2022-10-29T06:17:32.906Z,10.15
2022-10-29T06:18:34.465Z,10.12
2022-10-29T06:19:36.137Z,10.10
2022-10-29T06:20:38.927Z,10.22
2022-10-29T06:21:40.608Z,10.37
2022-10-29T06:22:42.162Z,10.49
2022-10-29T06:23:43.752Z,10.49
2022-10-29T06:24:45.304Z,10.70
2022-10-29T06:25:46.857Z,10.88
2022-10-29T06:26:48.421Z,11.03
2022-10-29T06:28:01.497Z,11.12
2022-10-29T06:29:04.317Z,10.78
2022-10-29T06:30:06.632Z,10.66
2022-10-29T06:31:08.146Z,10.75
2022-10-29T06:32:09.698Z,10.85
2022-10-29T06:33:11.231Z,10.86
2022-10-29T06:34:13.961Z,10.79
2022-10-29T06:35:15.616Z,10.54
2022-10-29T06:36:17.520Z,10.57
2022-10-29T06:37:19.035Z,10.50
2022-10-29T06:38:20.856Z,10.44
2022-10-29T06:39:22.411Z,10.29
2022-10-29T06:40:24.146Z,10.20
2022-10-29T06:41:27.248Z,10.17
2022-10-29T06:42:28.756Z,10.22
2022-10-29T06:43:30.442Z,10.27
2022-10-29T06:44:31.994Z,10.42
2022-10-29T06:45:34.977Z,10.68
2022-10-29T06:46:36.592Z,10.78
2022-10-29T06:47:45.516Z,10.86
2022-10-29T06:48:47.154Z,10.99
2022-10-29T06:49:48.726Z,11.10
2022-10-29T06:50:51.235Z,11.10
2022-10-29T06:51:52.771Z,10.96
2022-10-29T06:52:59.924Z,10.87
2022-10-29T06:54:01.599Z,11.00
2022-10-29T06:55:03.366Z,11.18
2022-10-29T06:56:04.975Z,11.36
2022-10-29T06:57:06.487Z,11.38
2022-10-29T06:58:12.823Z,11.29
2022-10-29T06:59:14.391Z,11.36
2022-10-29T07:00:16.096Z,11.65
2022-10-29T07:01:17.669Z,11.93
2022-10-29T07:02:20.675Z,12.16
2022-10-29T07:03:23.208Z,12.36
2022-10-29T07:04:24.776Z,12.48
2022-10-29T07:05:27.389Z,12.60
2022-10-29T07:06:32.483Z,12.61
2022-10-29T07:07:34.003Z,12.53
2022-10-29T07:08:35.554Z,12.76
2022-10-29T07:09:37.059Z,12.81
2022-10-29T07:10:39.049Z,12.97
2022-10-29T07:11:40.646Z,13.06
2022-10-29T07:12:43.395Z,13.17
2022-10-29T07:13:45.155Z,13.31
2022-10-29T07:14:46.681Z,13.31
2022-10-29T07:15:48.379Z,13.47
2022-10-29T07:16:49.942Z,13.59
2022-10-29T07:18:02.426Z,13.73
2022-10-29T07:19:05.684Z,13.90
2022-10-29T07:20:09.246Z,14.02
2022-10-29T07:21:10.939Z,14.04
2022-10-29T07:22:12.471Z,14.15
2022-10-29T07:23:14.121Z,14.32
2022-10-29T07:24:17.684Z,14.41
2022-10-29T07:25:19.805Z,14.57
2022-10-29T07:26:21.395Z,14.41
2022-10-29T07:27:23.110Z,14.18
2022-10-29T07:28:25.617Z,14.34
2022-10-29T07:29:27.171Z,14.46
2022-10-29T07:30:28.712Z,14.60
2022-10-29T07:31:31.384Z,14.71
2022-10-29T07:32:32.921Z,14.70
2022-10-29T07:33:34.558Z,14.71
2022-10-29T07:34:36.082Z,14.80
2022-10-29T07:35:38.009Z,14.76
2022-10-29T07:36:39.532Z,14.80
2022-10-29T07:37:42.781Z,14.96
2022-10-29T07:38:44.680Z,15.10
2022-10-29T07:39:46.299Z,15.26
2022-10-29T07:40:50.026Z,15.37
2022-10-29T07:41:54.052Z,15.53
2022-10-29T07:42:58.654Z,15.65
2022-10-29T07:44:00.501Z,15.62
2022-10-29T07:45:02.123Z,15.10
2022-10-29T07:46:03.822Z,14.81
2022-10-29T07:47:05.511Z,14.26
2022-10-29T07:48:07.945Z,14.32
2022-10-29T07:49:09.459Z,14.62
2022-10-29T07:50:11.492Z,14.55
2022-10-29T07:51:13.001Z,14.65
2022-10-29T07:52:14.686Z,14.92
2022-10-29T07:53:16.825Z,15.12
2022-10-29T07:54:18.355Z,15.38
2022-10-29T07:55:20.061Z,15.51
2022-10-29T07:56:21.727Z,15.36
2022-10-29T07:57:23.320Z,15.33
2022-10-29T07:58:25.679Z,15.33
2022-10-29T07:59:27.287Z,15.32
2022-10-29T08:00:30.429Z,15.34
2022-10-29T08:01:32.761Z,15.43
2022-10-29T08:02:34.453Z,15.18
2022-10-29T08:03:36.180Z,14.94
2022-10-29T08:04:37.696Z,15.10
2022-10-29T08:05:42.569Z,15.13
2022-10-29T08:06:44.653Z,15.26
2022-10-29T08:07:46.173Z,15.28
2022-10-29T08:08:47.739Z,15.25
2022-10-29T08:09:49.250Z,15.28
2022-10-29T08:10:51.047Z,15.12
2022-10-29T08:11:52.587Z,15.14
2022-10-29T08:12:56.986Z,15.16
2022-10-29T08:13:59.711Z,15.27
2022-10-29T08:15:01.232Z,15.48
2022-10-29T08:16:02.785Z,15.55
2022-10-29T08:17:04.315Z,15.64
2022-10-29T08:18:16.219Z,15.82
2022-10-29T08:19:17.722Z,16.02
2022-10-29T08:20:20.897Z,16.06
2022-10-29T08:21:22.533Z,16.19
2022-10-29T08:22:24.468Z,16.33
2022-10-29T08:23:26.133Z,16.49
2022-10-29T08:24:27.678Z,16.66
2022-10-29T08:25:29.688Z,16.62
2022-10-29T08:26:31.336Z,16.38
2022-10-29T08:27:32.974Z,16.24
2022-10-29T08:28:35.879Z,16.07
2022-10-29T08:29:37.559Z,15.84
2022-10-29T08:30:39.784Z,15.92
2022-10-29T08:31:41.301Z,16.06
2022-10-29T08:32:46.769Z,16.24
2022-10-29T08:33:48.829Z,16.26
2022-10-29T08:34:50.570Z,16.21
2022-10-29T08:35:52.747Z,16.07
2022-10-29T08:36:54.273Z,16.01
2022-10-29T08:37:55.912Z,16.12
2022-10-29T08:38:57.415Z,16.29
2022-10-29T08:39:58.922Z,16.44
2022-10-29T08:41:11.425Z,16.29
2022-10-29T08:42:46.207Z,15.87
2022-10-29T08:44:21.519Z,15.95
2022-10-29T08:45:23.054Z,15.94
2022-10-29T08:46:54.462Z,15.95
2022-10-29T08:48:17.263Z,16.25
2022-10-29T08:49:23.958Z,16.09
2022-10-29T08:50:33.255Z,16.01
2022-10-29T08:51:38.949Z,16.08
2022-10-29T08:52:53.039Z,16.02
2022-10-29T08:54:25.504Z,16.14
2022-10-29T08:55:35.139Z,16.34
2022-10-29T08:56:39.039Z,16.54
2022-10-29T08:57:47.722Z,16.71
2022-10-29T08:59:09.230Z,16.92
2022-10-29T09:00:23.048Z,16.92
2022-10-29T09:01:24.862Z,16.97
2022-10-29T09:02:26.531Z,16.97
2022-10-29T09:03:31.894Z,16.74
2022-10-29T09:04:36.452Z,16.65
2022-10-29T09:06:16.388Z,16.58
2022-10-29T09:07:43.315Z,16.43
2022-10-29T09:08:53.918Z,16.55
2022-10-29T09:10:21.597Z,16.45
2022-10-29T09:11:37.976Z,16.15
2022-10-29T09:12:54.084Z,16.39
2022-10-29T09:14:10.897Z,16.77
2022-10-29T09:15:26.963Z,17.14
2022-10-29T09:16:51.968Z,17.38
2022-10-29T09:18:05.456Z,17.48
2022-10-29T09:19:36.143Z,17.53
2022-10-29T09:20:46.956Z,17.43
2022-10-29T09:22:03.511Z,17.10
2022-10-29T09:23:08.032Z,16.81
2022-10-29T09:24:19.305Z,16.69
2022-10-29T09:25:29.852Z,16.62
2022-10-29T09:26:41.434Z,16.65
2022-10-29T09:28:17.457Z,16.72
2022-10-29T09:29:24.855Z,16.68
2022-10-29T09:30:31.261Z,16.54
2022-10-29T09:31:51.007Z,16.78
2022-10-29T09:32:55.556Z,17.01
2022-10-29T09:34:02.674Z,17.21
2022-10-29T09:35:36.387Z,17.36
2022-10-29T09:36:38.342Z,17.54
2022-10-29T09:38:00.409Z,17.73
2022-10-29T09:39:09.959Z,17.88
2022-10-29T09:40:31.119Z,17.90
2022-10-29T09:41:34.381Z,17.88
2022-10-29T09:42:39.628Z,17.85
2022-10-29T09:43:51.929Z,18.04
2022-10-29T09:44:57.663Z,18.13
2022-10-29T09:46:25.205Z,18.11
2022-10-29T09:47:26.675Z,18.04
2022-10-29T09:48:49.566Z,18.10
2022-10-29T09:49:55.416Z,18.25
2022-10-29T09:51:12.259Z,18.32
2022-10-29T09:52:20.901Z,18.24
2022-10-29T09:53:22.460Z,18.10
2022-10-29T09:54:27.758Z,18.02
2022-10-29T09:55:39.880Z,18.13
2022-10-29T09:56:50.455Z,18.24
2022-10-29T09:57:57.314Z,18.35
2022-10-29T09:59:11.883Z,18.48
2022-10-29T10:00:26.786Z,18.62
2022-10-29T10:01:28.490Z,18.71
2022-10-29T10:02:37.419Z,18.80
2022-10-29T10:03:45.725Z,18.84
2022-10-29T10:04:49.240Z,18.87
2022-10-29T10:05:59.778Z,18.95
2022-10-29T10:07:16.463Z,18.95
2022-10-29T10:08:17.996Z,19.04
2022-10-29T10:09:19.567Z,19.07
2022-10-29T10:10:23.715Z,19.01
2022-10-29T10:11:44.085Z,18.95
2022-10-29T10:12:50.389Z,19.04
2022-10-29T10:13:58.867Z,19.06
2022-10-29T10:15:06.377Z,19.05
2022-10-29T10:16:08.027Z,19.01
2022-10-29T10:17:09.597Z,18.99
2022-10-29T10:18:23.596Z,19.02
2022-10-29T10:19:27.984Z,19.11
2022-10-29T10:20:29.522Z,19.16
2022-10-29T10:21:33.342Z,19.17
2022-10-29T10:22:47.268Z,19.20
2022-10-29T10:23:53.594Z,19.14
2022-10-29T10:24:55.123Z,19.16
2022-10-29T10:26:02.175Z,19.04
2022-10-29T10:27:26.284Z,19.06
2022-10-29T10:28:30.344Z,19.03
2022-10-29T10:29:31.902Z,19.05
2022-10-29T10:30:33.471Z,18.90
2022-10-29T10:31:35.006Z,18.74
2022-10-29T10:32:37.015Z,18.82
2022-10-29T10:33:49.621Z,18.96
2022-10-29T10:34:51.319Z,19.00
2022-10-29T10:35:54.637Z,19.12
2022-10-29T10:37:05.290Z,19.05
2022-10-29T10:38:09.190Z,19.08
2022-10-29T10:39:41.998Z,19.16
2022-10-29T10:40:43.711Z,19.17
2022-10-29T10:41:45.798Z,19.21
2022-10-29T10:42:47.837Z,19.22
2022-10-29T10:43:49.668Z,19.17
2022-10-29T10:45:00.111Z,19.21
2022-10-29T10:46:10.531Z,19.26
2022-10-29T10:47:12.650Z,19.27
2022-10-29T10:48:15.524Z,19.25
2022-10-29T10:49:20.955Z,19.25
2022-10-29T10:50:33.618Z,19.32
2022-10-29T10:51:37.969Z,19.23
2022-10-29T10:52:40.474Z,19.26
2022-10-29T10:53:42.075Z,19.34
2022-10-29T10:54:55.639Z,19.28
2022-10-29T10:56:00.595Z,19.12
2022-10-29T10:57:19.494Z,19.09
2022-10-29T10:58:30.248Z,19.01
2022-10-29T10:59:56.135Z,19.01
2022-10-29T11:01:11.831Z,18.95
2022-10-29T11:02:22.506Z,18.96
2022-10-29T11:03:46.552Z,19.02
2022-10-29T11:04:55.776Z,19.10
2022-10-29T11:06:08.438Z,19.29
2022-10-29T11:07:14.662Z,19.33
2022-10-29T11:08:43.375Z,19.38
2022-10-29T11:09:50.235Z,19.36
2022-10-29T11:11:02.550Z,19.32
2022-10-29T11:12:15.659Z,19.28
2022-10-29T11:13:22.936Z,19.20
2022-10-29T11:14:24.423Z,19.05
2022-10-29T11:15:40.490Z,19.01
2022-10-29T11:16:53.834Z,18.98
2022-10-29T11:18:03.829Z,19.04
2022-10-29T11:19:34.174Z,19.13
2022-10-29T11:20:44.836Z,19.16
2022-10-29T11:21:56.019Z,19.29
2022-10-29T11:23:13.938Z,19.37
2022-10-29T11:24:23.894Z,19.43
2022-10-29T11:25:39.799Z,19.53
2022-10-29T11:26:55.866Z,19.64
2022-10-29T11:28:03.482Z,19.68
2022-10-29T11:29:12.838Z,19.69
2022-10-29T11:30:19.342Z,19.71
2022-10-29T11:31:41.557Z,19.75
2022-10-29T11:33:10.289Z,19.83
2022-10-29T11:34:24.937Z,19.92
2022-10-29T11:35:51.584Z,19.98
2022-10-29T11:37:06.742Z,20.01
2022-10-29T11:38:44.988Z,20.01
2022-10-29T11:39:57.016Z,20.01
2022-10-29T11:41:17.560Z,19.82
2022-10-29T11:42:19.081Z,19.66
2022-10-29T11:43:21.578Z,19.60
2022-10-29T11:44:23.477Z,19.50
2022-10-29T11:46:02.359Z,19.64
2022-10-29T11:47:10.010Z,19.72
2022-10-29T11:49:51.717Z,19.80
2022-10-29T11:50:58.314Z,19.99
2022-10-29T11:52:09.190Z,20.02
2022-10-29T11:53:16.791Z,19.96
2022-10-29T11:54:55.585Z,20.00
2022-10-29T11:56:06.269Z,20.02
2022-10-29T11:57:24.829Z,20.10
2022-10-29T11:59:15.651Z,20.24
2022-10-29T12:00:22.672Z,20.25
2022-10-29T12:01:36.315Z,20.27
2022-10-29T12:02:57.101Z,20.23
2022-10-29T12:05:30.423Z,20.26
2022-10-29T12:06:39.872Z,20.30
2022-10-29T12:07:53.624Z,20.27
2022-10-29T12:09:16.836Z,20.40
2022-10-29T12:10:30.533Z,20.42
2022-10-29T12:11:50.705Z,20.48
2022-10-29T12:13:09.353Z,20.49
2022-10-29T12:14:16.866Z,20.52
2022-10-29T12:15:36.191Z,20.61
2022-10-29T12:16:56.797Z,20.65
2022-10-29T12:18:17.529Z,20.59
2022-10-29T12:19:24.856Z,20.47
2022-10-29T12:20:43.407Z,20.43
2022-10-29T12:21:56.219Z,20.35
2022-10-29T12:23:28.806Z,20.41
2022-10-29T12:24:30.287Z,20.50
2022-10-29T12:25:48.190Z,20.56
2022-10-29T12:27:09.142Z,20.64
2022-10-29T12:28:39.011Z,20.64
2022-10-29T12:29:51.784Z,20.66
2022-10-29T12:31:19.913Z,20.64
2022-10-29T12:32:46.862Z,20.51
2022-10-29T12:34:03.529Z,20.57
2022-10-29T12:35:16.961Z,20.56
2022-10-29T12:36:52.055Z,20.65
2022-10-29T12:37:59.875Z,20.70
2022-10-29T12:39:02.682Z,20.77
2022-10-29T12:40:14.610Z,20.79
2022-10-29T12:41:38.877Z,20.84
2022-10-29T12:42:40.914Z,20.83
2022-10-29T12:43:43.174Z,20.85
2022-10-29T12:45:10.460Z,20.85
2022-10-29T12:46:20.449Z,20.85
2022-10-29T12:47:54.809Z,20.88
2022-10-29T12:48:56.492Z,20.90
2022-10-29T12:50:20.941Z,20.97
2022-10-29T12:51:28.107Z,21.03
2022-10-29T12:52:43.964Z,20.96
2022-10-29T12:54:03.322Z,20.99
2022-10-29T12:55:09.130Z,21.06
2022-10-29T12:56:16.337Z,21.07
2022-10-29T12:57:18.385Z,21.09
2022-10-29T12:58:45.645Z,21.12
2022-10-29T12:59:47.265Z,21.09
2022-10-29T13:00:48.863Z,21.08
2022-10-29T13:03:58.763Z,21.07
2022-10-29T13:05:06.901Z,21.11
2022-10-29T13:06:42.363Z,21.12
2022-10-29T13:07:46.894Z,21.05
2022-10-29T13:08:57.382Z,21.08
2022-10-29T13:10:28.624Z,21.11
2022-10-29T13:11:44.405Z,21.11
2022-10-29T13:13:18.725Z,21.05
2022-10-29T13:14:38.469Z,20.94
2022-10-29T13:15:42.562Z,20.91
2022-10-29T13:16:49.636Z,20.96
2022-10-29T13:17:52.782Z,20.96
2022-10-29T13:19:05.390Z,20.94
2022-10-29T13:20:33.383Z,20.94
2022-10-29T13:21:54.796Z,21.00
2022-10-29T13:22:58.752Z,20.97
2022-10-29T13:24:06.851Z,20.96
2022-10-29T13:25:34.829Z,20.90
2022-10-29T13:26:59.863Z,20.88
2022-10-29T13:28:21.297Z,20.84
2022-10-29T13:30:10.518Z,20.84
2022-10-29T13:31:11.965Z,20.91
2022-10-29T13:32:33.084Z,20.91
2022-10-29T13:33:34.546Z,20.90
2022-10-29T13:34:50.752Z,20.94
2022-10-29T13:35:58.960Z,20.98
2022-10-29T13:37:38.211Z,21.01
2022-10-29T13:38:57.991Z,20.98
2022-10-29T13:40:32.946Z,21.03
2022-10-29T13:41:42.751Z,21.00
2022-10-29T13:42:45.783Z,21.06
2022-10-29T13:44:12.139Z,21.05
2022-10-29T13:45:14.062Z,21.05
2022-10-29T13:46:44.978Z,21.12
2022-10-29T13:47:48.212Z,21.12
2022-10-29T13:48:52.035Z,21.07
2022-10-29T13:49:54.056Z,21.00
2022-10-29T13:50:57.661Z,21.03
2022-10-29T13:52:12.237Z,21.07
2022-10-29T13:53:18.072Z,21.06
2022-10-29T13:54:35.083Z,21.00
2022-10-29T13:55:37.917Z,21.00
2022-10-29T13:56:54.445Z,21.05
2022-10-29T13:58:06.093Z,21.03
2022-10-29T13:59:15.403Z,21.03
2022-10-29T14:00:19.790Z,21.03
2022-10-29T14:01:23.134Z,20.97
2022-10-29T14:02:37.149Z,20.98
2022-10-29T14:03:53.137Z,21.02
2022-10-29T14:04:59.535Z,21.01
2022-10-29T14:06:09.732Z,20.93
2022-10-29T14:07:18.538Z,20.94
2022-10-29T14:08:30.686Z,20.95
2022-10-29T14:09:46.771Z,20.90
2022-10-29T14:10:53.658Z,20.91
2022-10-29T14:12:00.873Z,20.92
2022-10-29T14:13:23.656Z,20.91
2022-10-29T14:14:47.511Z,20.90
2022-10-29T14:16:01.553Z,20.90
2022-10-29T14:17:16.889Z,20.92
2022-10-29T14:18:22.450Z,20.96
2022-10-29T14:19:24.035Z,20.90
2022-10-29T14:20:30.018Z,20.84
2022-10-29T14:21:38.506Z,20.83
2022-10-29T14:22:41.034Z,20.85
2022-10-29T14:24:04.740Z,20.85
2022-10-29T14:25:24.320Z,20.87
2022-10-29T14:26:26.992Z,20.83
2022-10-29T14:27:29.647Z,20.77
2022-10-29T14:28:33.550Z,20.76
2022-10-29T14:29:35.124Z,20.70
2022-10-29T14:30:36.993Z,20.74
2022-10-29T14:31:38.532Z,20.76
2022-10-29T14:32:40.994Z,20.74
2022-10-29T14:33:44.458Z,20.74
2022-10-29T14:34:49.912Z,20.76
2022-10-29T14:35:55.596Z,20.75
2022-10-29T14:37:03.531Z,20.77
2022-10-29T14:38:11.297Z,20.78
2022-10-29T14:39:28.806Z,20.81
2022-10-29T14:40:34.494Z,20.78
2022-10-29T14:41:39.132Z,20.74
2022-10-29T14:42:45.291Z,20.75
2022-10-29T14:44:00.446Z,20.76
2022-10-29T14:45:07.328Z,20.74